createdAt,value
2022-12-27T00:00:09.754Z,3.71
2022-12-27T00:02:46.281Z,3.74
2022-12-27T00:05:15.615Z,3.74
2022-12-27T00:07:44.827Z,3.64
2022-12-27T00:10:12.733Z,3.32
2022-12-27T00:12:40.307Z,3.27
2022-12-27T00:15:08.490Z,3.30
2022-12-27T00:17:36.062Z,3.38
2022-12-27T00:20:11.403Z,3.47
2022-12-27T00:22:43.696Z,3.77
2022-12-27T00:25:12.038Z,3.64
2022-12-27T00:27:39.864Z,3.72
2022-12-27T00:30:08.958Z,3.71
2022-12-27T00:32:36.485Z,3.95
2022-12-27T00:35:04.360Z,3.95
2022-12-27T00:37:31.981Z,3.74
2022-12-27T00:40:00.026Z,3.42
2022-12-27T00:42:27.568Z,3.40
2022-12-27T00:44:55.180Z,3.33
2022-12-27T00:47:22.669Z,3.36
2022-12-27T00:49:50.100Z,3.26
2022-12-27T00:52:17.592Z,3.23
2022-12-27T00:54:45.149Z,3.36
2022-12-27T00:57:12.685Z,3.25
2022-12-27T00:59:40.158Z,3.28
2022-12-27T01:02:07.802Z,3.28
2022-12-27T01:04:35.328Z,3.18
2022-12-27T01:07:02.890Z,3.03
2022-12-27T01:09:30.536Z,2.90
2022-12-27T01:11:58.104Z,2.81
2022-12-27T01:14:25.562Z,2.94
2022-12-27T01:16:53.221Z,2.93
2022-12-27T01:19:20.787Z,3.09
2022-12-27T01:21:48.857Z,3.13
2022-12-27T01:24:16.370Z,3.13
2022-12-27T01:26:43.915Z,3.12
2022-12-27T01:29:13.663Z,3.08
2022-12-27T01:31:41.532Z,3.07
2022-12-27T01:34:09.120Z,3.06
2022-12-27T01:36:36.669Z,3.10
2022-12-27T01:39:04.866Z,2.98
2022-12-27T01:41:56.421Z,2.95
2022-12-27T01:44:43.604Z,2.94
2022-12-27T01:47:33.824Z,2.93
2022-12-27T01:50:07.549Z,2.85
2022-12-27T01:52:52.968Z,2.87
2022-12-27T01:55:43.251Z,2.93
2022-12-27T01:58:47.680Z,2.73
2022-12-27T02:01:28.070Z,2.85
2022-12-27T02:04:08.175Z,2.95
2022-12-27T02:06:38.052Z,3.06
2022-12-27T02:09:23.767Z,3.18
2022-12-27T02:11:56.952Z,3.09
2022-12-27T02:14:46.733Z,3.03
2022-12-27T02:17:34.640Z,3.05
2022-12-27T02:20:23.417Z,3.13
2022-12-27T02:23:47.299Z,3.17
2022-12-27T02:26:44.312Z,3.29
2022-12-27T02:30:13.533Z,3.40
2022-12-27T02:32:57.071Z,3.20
2022-12-27T02:35:53.000Z,3.23
2022-12-27T02:38:33.037Z,3.18
2022-12-27T02:41:23.304Z,3.11
2022-12-27T02:44:11.785Z,3.05
2022-12-27T02:46:57.954Z,2.99
2022-12-27T02:49:56.668Z,3.01
2022-12-27T02:53:04.787Z,3.00
2022-12-27T02:56:14.862Z,3.18
2022-12-27T02:59:27.592Z,3.13
2022-12-27T03:02:46.733Z,2.92
2022-12-27T03:06:29.859Z,2.84
2022-12-27T03:10:00.643Z,2.82
2022-12-27T03:13:05.057Z,2.81
2022-12-27T03:15:56.244Z,2.93
2022-12-27T03:18:55.245Z,2.81
2022-12-27T03:21:50.509Z,2.73
2022-12-27T03:24:41.361Z,2.66
2022-12-27T03:27:28.619Z,2.67
2022-12-27T03:30:18.401Z,2.64
2022-12-27T03:33:13.049Z,2.58
2022-12-27T03:36:30.972Z,2.66
2022-12-27T03:39:21.683Z,2.55
2022-12-27T03:42:19.620Z,2.60
2022-12-27T03:44:47.236Z,2.63
2022-12-27T03:47:34.378Z,2.54
2022-12-27T03:50:29.082Z,2.51
2022-12-27T03:53:19.222Z,2.52
2022-12-27T03:55:46.819Z,2.48
2022-12-27T03:58:14.422Z,2.64
2022-12-27T04:00:41.952Z,2.59
2022-12-27T04:03:09.535Z,2.55
2022-12-27T04:05:37.079Z,2.66
2022-12-27T04:08:23.431Z,2.76
2022-12-27T04:11:09.582Z,2.61
2022-12-27T04:13:55.457Z,2.61
2022-12-27T04:16:41.803Z,2.61
2022-12-27T04:19:27.895Z,2.58
2022-12-27T04:22:14.072Z,2.54
2022-12-27T04:25:00.248Z,2.43
2022-12-27T04:27:46.294Z,2.25
2022-12-27T04:30:32.589Z,2.16
2022-12-27T04:33:18.738Z,2.11
2022-12-27T04:35:46.296Z,2.32
2022-12-27T04:38:15.293Z,2.27
2022-12-27T04:41:01.228Z,2.10
2022-12-27T04:43:47.581Z,2.14
2022-12-27T04:46:44.938Z,2.28
2022-12-27T04:49:43.666Z,2.15
2022-12-27T04:52:39.717Z,2.06
2022-12-27T04:55:30.683Z,2.05
2022-12-27T04:57:59.308Z,2.12
2022-12-27T05:00:49.190Z,2.21
2022-12-27T05:03:23.843Z,2.50
2022-12-27T05:05:52.774Z,2.50
2022-12-27T05:08:40.355Z,2.11
2022-12-27T05:11:27.431Z,2.03
2022-12-27T05:14:01.109Z,1.88
2022-12-27T05:16:42.167Z,1.86
2022-12-27T05:19:14.223Z,1.78
2022-12-27T05:22:05.044Z,1.86
2022-12-27T05:24:56.520Z,1.93
2022-12-27T05:27:23.962Z,2.07
2022-12-27T05:29:51.553Z,1.98
2022-12-27T05:32:19.102Z,1.91
2022-12-27T05:34:46.629Z,1.89
2022-12-27T05:37:14.247Z,2.00
2022-12-27T05:39:42.143Z,2.01
2022-12-27T05:42:09.675Z,1.95
2022-12-27T05:44:37.218Z,1.76
2022-12-27T05:47:04.859Z,1.79
2022-12-27T05:49:32.354Z,2.14
2022-12-27T05:51:59.769Z,2.06
2022-12-27T05:54:27.268Z,2.06
2022-12-27T05:56:54.909Z,2.23
2022-12-27T05:59:22.447Z,2.31
2022-12-27T06:01:50.033Z,2.27
2022-12-27T06:04:17.671Z,2.25
2022-12-27T06:06:45.201Z,2.32
2022-12-27T06:09:12.678Z,2.32
2022-12-27T06:11:40.814Z,2.60
2022-12-27T06:14:08.376Z,2.45
2022-12-27T06:16:36.357Z,2.15
2022-12-27T06:19:04.153Z,1.96
2022-12-27T06:21:35.767Z,1.98
2022-12-27T06:24:03.502Z,1.95
2022-12-27T06:26:31.490Z,1.98
2022-12-27T06:28:59.461Z,2.23
2022-12-27T06:31:28.964Z,2.38
2022-12-27T06:33:57.335Z,2.31
2022-12-27T06:36:28.776Z,2.32
2022-12-27T06:38:58.430Z,2.51
2022-12-27T06:41:26.770Z,2.58
2022-12-27T06:43:57.241Z,2.51
2022-12-27T06:46:25.478Z,2.65
2022-12-27T06:48:53.393Z,2.78
2022-12-27T06:51:24.318Z,2.97
2022-12-27T06:53:52.381Z,3.21
2022-12-27T06:56:24.394Z,3.35
2022-12-27T06:58:52.675Z,3.43
2022-12-27T07:01:27.555Z,3.56
2022-12-27T07:04:00.406Z,3.67
2022-12-27T07:06:31.760Z,3.94
2022-12-27T07:09:01.676Z,4.11
2022-12-27T07:11:29.537Z,4.27
2022-12-27T07:13:57.260Z,4.29
2022-12-27T07:16:28.105Z,4.48
2022-12-27T07:18:58.323Z,4.58
2022-12-27T07:21:28.241Z,4.72
2022-12-27T07:23:56.535Z,4.73
2022-12-27T07:26:30.582Z,5.00
2022-12-27T07:29:00.980Z,5.21
2022-12-27T07:31:32.626Z,5.46
2022-12-27T07:34:03.136Z,5.75
2022-12-27T07:36:39.557Z,6.01
2022-12-27T07:39:09.140Z,6.34
2022-12-27T07:41:38.113Z,6.62
2022-12-27T07:44:06.342Z,6.61
2022-12-27T07:46:34.752Z,6.70
2022-12-27T07:49:02.416Z,7.38
2022-12-27T07:51:30.225Z,7.60
2022-12-27T07:53:58.696Z,7.83
2022-12-27T07:56:29.643Z,7.74
2022-12-27T07:59:00.051Z,8.00
2022-12-27T08:01:51.007Z,8.26
2022-12-27T08:04:18.654Z,8.50
2022-12-27T08:06:47.416Z,8.76
2022-12-27T08:09:18.403Z,9.00
2022-12-27T08:11:46.251Z,9.03
2022-12-27T08:14:13.852Z,9.24
2022-12-27T08:16:41.738Z,9.41
2022-12-27T08:19:09.211Z,9.74
2022-12-27T08:21:36.748Z,9.94
2022-12-27T08:24:04.628Z,10.19
2022-12-27T08:26:32.256Z,10.46
2022-12-27T08:28:59.838Z,10.68
2022-12-27T08:31:27.385Z,10.80
2022-12-27T08:33:58.813Z,10.80
2022-12-27T08:36:56.809Z,10.94
2022-12-27T08:39:14.258Z,10.97
2022-12-27T08:41:42.899Z,11.03
2022-12-27T08:44:11.603Z,11.07
2022-12-27T08:46:39.718Z,11.34
2022-12-27T08:49:08.001Z,11.35
2022-12-27T08:51:40.745Z,11.26
2022-12-27T08:54:09.412Z,11.43
2022-12-27T08:56:38.587Z,11.70
2022-12-27T08:59:06.194Z,12.14
2022-12-27T09:01:33.885Z,12.60
2022-12-27T09:04:01.760Z,13.01
2022-12-27T09:06:29.329Z,13.31
2022-12-27T09:08:57.640Z,13.63
2022-12-27T09:11:33.561Z,13.99
2022-12-27T09:14:05.219Z,14.41
2022-12-27T09:16:37.312Z,14.66
2022-12-27T09:19:05.170Z,15.19
2022-12-27T09:21:35.168Z,15.22
2022-12-27T09:24:03.263Z,15.53
2022-12-27T09:26:31.660Z,15.45
2022-12-27T09:29:03.236Z,15.49
2022-12-27T09:31:31.283Z,15.65
2022-12-27T09:33:59.428Z,15.17
2022-12-27T09:36:29.725Z,14.68
2022-12-27T09:38:59.410Z,14.82
2022-12-27T09:44:59.696Z,15.98
2022-12-27T09:47:53.629Z,16.60
2022-12-27T09:50:33.655Z,16.73
2022-12-27T09:53:14.055Z,16.57
2022-12-27T09:55:50.477Z,16.16
2022-12-27T09:58:42.238Z,15.67
2022-12-27T10:01:21.962Z,15.31
2022-12-27T10:03:50.886Z,14.99
2022-12-27T10:06:45.474Z,14.50
2022-12-27T10:09:44.153Z,14.34
2022-12-27T10:12:39.135Z,14.20
2022-12-27T10:15:27.541Z,14.24
2022-12-27T10:18:29.192Z,14.10
2022-12-27T10:21:18.406Z,14.08
2022-12-27T10:24:16.616Z,14.02
2022-12-27T10:26:44.582Z,13.64
2022-12-27T10:29:24.097Z,14.04
2022-12-27T10:31:54.642Z,14.21
2022-12-27T10:34:24.708Z,14.40
2022-12-27T10:36:54.805Z,13.95
2022-12-27T10:39:28.852Z,13.90
2022-12-27T10:42:23.534Z,13.83
2022-12-27T10:44:51.321Z,13.87
2022-12-27T10:47:19.576Z,13.97
2022-12-27T10:50:14.213Z,14.23
2022-12-27T10:52:41.743Z,14.48
2022-12-27T10:55:39.708Z,14.66
2022-12-27T10:58:42.827Z,15.34
2022-12-27T11:01:28.290Z,15.89
2022-12-27T11:04:26.199Z,16.86
2022-12-27T11:07:00.177Z,17.79
2022-12-27T11:09:35.071Z,18.81
2022-12-27T11:12:29.150Z,19.83
2022-12-27T11:14:59.896Z,20.10
2022-12-27T11:17:43.187Z,20.00
2022-12-27T11:20:31.969Z,19.75
2022-12-27T11:23:15.206Z,19.04
2022-12-27T11:26:04.875Z,18.37
2022-12-27T11:28:48.013Z,17.90
2022-12-27T11:31:30.493Z,17.89
2022-12-27T11:34:09.058Z,17.56
2022-12-27T11:36:42.227Z,17.65
2022-12-27T11:39:56.972Z,17.86
2022-12-27T11:42:42.283Z,18.36
2022-12-27T11:45:16.549Z,18.90
2022-12-27T11:47:53.594Z,19.91
2022-12-27T11:50:48.050Z,20.16
2022-12-27T11:54:00.386Z,20.34
2022-12-27T11:56:31.167Z,20.20
2022-12-27T11:59:33.748Z,19.86
2022-12-27T12:02:51.830Z,19.63
2022-12-27T12:05:19.473Z,19.56
2022-12-27T12:08:05.287Z,19.72
2022-12-27T12:11:23.707Z,20.53
2022-12-27T12:14:11.718Z,20.90
2022-12-27T12:16:57.413Z,20.92
2022-12-27T12:20:34.246Z,20.87
2022-12-27T12:23:10.545Z,21.31
2022-12-27T12:26:12.152Z,21.25
2022-12-27T12:28:59.776Z,21.14
2022-12-27T12:32:03.687Z,20.96
2022-12-27T12:35:18.664Z,21.03
2022-12-27T12:38:21.965Z,21.36
2022-12-27T12:40:52.338Z,21.27
2022-12-27T12:44:01.077Z,20.97
2022-12-27T12:47:05.547Z,21.21
2022-12-27T12:50:29.045Z,21.85
2022-12-27T12:53:44.604Z,22.52
2022-12-27T12:56:33.080Z,23.21
2022-12-27T13:00:01.363Z,23.73
2022-12-27T13:03:10.393Z,23.47
2022-12-27T13:06:16.856Z,23.13
2022-12-27T13:09:03.118Z,23.72
2022-12-27T13:12:00.766Z,23.40
2022-12-27T13:14:51.153Z,23.18
2022-12-27T13:17:42.785Z,23.20
2022-12-27T13:20:40.248Z,23.22
2022-12-27T13:23:41.880Z,23.55
2022-12-27T13:26:45.424Z,23.55
2022-12-27T13:29:39.463Z,23.72
2022-12-27T13:32:22.381Z,24.14
2022-12-27T13:35:11.141Z,24.75
2022-12-27T13:38:07.407Z,24.75
2022-12-27T13:41:11.783Z,24.31
2022-12-27T13:44:15.688Z,23.48
2022-12-27T13:47:29.550Z,22.52
2022-12-27T13:50:17.873Z,21.72
2022-12-27T13:53:03.809Z,21.18
2022-12-27T13:55:54.191Z,21.00
2022-12-27T13:58:48.478Z,21.44
2022-12-27T14:01:30.914Z,21.98
2022-12-27T14:04:24.243Z,22.43
2022-12-27T14:07:28.317Z,22.90
2022-12-27T14:10:35.327Z,23.19
2022-12-27T14:13:09.638Z,23.54
2022-12-27T14:16:01.951Z,23.04
2022-12-27T14:19:05.824Z,22.71
2022-12-27T14:21:57.696Z,21.96
2022-12-27T14:25:09.329Z,20.87
2022-12-27T14:28:16.681Z,20.05
2022-12-27T14:31:22.859Z,19.42
2022-12-27T14:34:28.406Z,19.12
2022-12-27T14:37:26.148Z,18.71
2022-12-27T14:40:17.972Z,18.27
2022-12-27T14:43:36.140Z,17.94
2022-12-27T14:46:52.393Z,17.70
2022-12-27T14:49:59.477Z,17.38
2022-12-27T14:52:42.589Z,17.10
2022-12-27T14:55:34.605Z,16.88
2022-12-27T14:58:56.453Z,16.42
2022-12-27T15:01:59.169Z,16.35
2022-12-27T15:05:25.962Z,16.08
2022-12-27T15:08:20.162Z,15.92
2022-12-27T15:11:25.258Z,15.72
2022-12-27T15:14:29.070Z,15.98
2022-12-27T15:17:17.939Z,16.24
2022-12-27T15:20:45.752Z,15.98
2022-12-27T15:23:53.251Z,15.76
2022-12-27T15:26:58.330Z,15.69
2022-12-27T15:30:05.506Z,15.59
2022-12-27T15:32:57.788Z,15.63
2022-12-27T15:35:56.021Z,15.27
2022-12-27T15:38:54.927Z,15.30
2022-12-27T15:42:11.941Z,15.22
2022-12-27T15:45:12.369Z,15.22
2022-12-27T15:48:12.141Z,15.18
2022-12-27T15:51:05.352Z,15.02
2022-12-27T15:54:09.443Z,15.07
2022-12-27T15:57:01.862Z,14.90
2022-12-27T15:59:51.250Z,14.79
2022-12-27T16:02:24.006Z,14.72
2022-12-27T16:05:12.796Z,14.98
2022-12-27T16:07:46.441Z,15.02
2022-12-27T16:10:32.473Z,15.02
2022-12-27T16:13:39.434Z,14.89
2022-12-27T16:16:32.404Z,14.59
2022-12-27T16:19:11.537Z,14.32
2022-12-27T16:21:47.020Z,13.75
2022-12-27T16:24:23.157Z,13.42
2022-12-27T16:27:05.623Z,13.36
2022-12-27T16:29:37.847Z,13.16
2022-12-27T16:32:21.133Z,13.04
2022-12-27T16:34:55.965Z,12.77
2022-12-27T16:37:55.772Z,12.76
2022-12-27T16:40:35.443Z,13.01
2022-12-27T16:43:08.826Z,13.08
2022-12-27T16:45:39.664Z,12.55
2022-12-27T16:48:25.717Z,12.86
2022-12-27T16:50:58.012Z,12.82
2022-12-27T16:54:10.966Z,12.91
2022-12-27T16:56:44.867Z,12.84
2022-12-27T17:00:18.039Z,13.02
2022-12-27T17:02:47.761Z,12.71
2022-12-27T17:05:15.256Z,12.71
2022-12-27T17:08:13.301Z,12.45
2022-12-27T17:10:52.609Z,12.89
2022-12-27T17:13:48.188Z,12.93
2022-12-27T17:16:34.472Z,13.25
2022-12-27T17:19:17.644Z,13.70
2022-12-27T17:21:47.222Z,13.43
2022-12-27T17:24:21.243Z,13.15
2022-12-27T17:27:25.409Z,13.46
2022-12-27T17:30:02.589Z,13.33
2022-12-27T17:33:10.320Z,13.12
2022-12-27T17:35:50.652Z,13.26
2022-12-27T17:38:52.093Z,13.14
2022-12-27T17:41:51.477Z,13.15
2022-12-27T17:44:48.070Z,13.29
2022-12-27T17:47:59.393Z,13.08
2022-12-27T17:50:29.640Z,12.89
2022-12-27T17:53:37.027Z,13.11
2022-12-27T17:56:36.439Z,13.02
2022-12-27T17:59:13.735Z,12.65
2022-12-27T18:01:53.680Z,12.44
2022-12-27T18:04:33.673Z,13.00
2022-12-27T18:07:48.723Z,13.02
2022-12-27T18:10:21.860Z,12.88
2022-12-27T18:13:00.178Z,13.25
2022-12-27T18:15:34.199Z,13.09
2022-12-27T18:18:08.304Z,12.88
2022-12-27T18:20:42.768Z,12.92
2022-12-27T18:23:11.992Z,12.57
2022-12-27T18:25:45.505Z,12.65
2022-12-27T18:28:33.926Z,12.36
2022-12-27T18:31:36.822Z,12.35
2022-12-27T18:34:17.274Z,12.36
2022-12-27T18:37:07.174Z,12.37
2022-12-27T18:39:42.325Z,12.35
2022-12-27T18:42:24.873Z,12.36
2022-12-27T18:45:00.597Z,12.41
2022-12-27T18:47:28.964Z,12.21
2022-12-27T18:50:00.336Z,12.60
2022-12-27T18:52:38.483Z,12.36
2022-12-27T18:55:29.463Z,12.58
2022-12-27T18:58:20.907Z,12.92
2022-12-27T19:00:55.554Z,12.90
2022-12-27T19:03:23.340Z,13.01
2022-12-27T19:06:06.050Z,12.99
2022-12-27T19:08:44.437Z,12.90
2022-12-27T19:11:29.365Z,12.72
2022-12-27T19:14:01.840Z,12.78
2022-12-27T19:16:36.833Z,12.68
2022-12-27T19:19:26.751Z,12.54
2022-12-27T19:21:59.391Z,12.22
2022-12-27T19:24:35.321Z,12.19
2022-12-27T19:27:23.834Z,12.52
2022-12-27T19:29:53.641Z,12.29
2022-12-27T19:32:32.322Z,12.14
2022-12-27T19:35:03.993Z,12.10
2022-12-27T19:37:33.764Z,11.85
2022-12-27T19:40:02.191Z,12.00
2022-12-27T19:42:33.315Z,11.73
2022-12-27T19:45:04.145Z,11.66
2022-12-27T19:47:32.663Z,11.89
2022-12-27T19:50:00.170Z,11.93
2022-12-27T19:52:28.187Z,12.23
2022-12-27T19:55:09.562Z,11.79
2022-12-27T19:57:40.125Z,12.01
2022-12-27T20:00:16.295Z,11.75
2022-12-27T20:02:46.012Z,11.84
2022-12-27T20:05:13.911Z,12.06
2022-12-27T20:07:42.058Z,11.91
2022-12-27T20:10:15.275Z,11.94
2022-12-27T20:12:42.840Z,11.71
2022-12-27T20:15:10.917Z,11.68
2022-12-27T20:17:44.577Z,11.71
2022-12-27T20:20:14.731Z,11.56
2022-12-27T20:22:42.529Z,11.15
2022-12-27T20:25:13.820Z,11.19
2022-12-27T20:27:41.416Z,10.97
2022-12-27T20:30:10.462Z,11.33
2022-12-27T20:32:38.105Z,11.68
2022-12-27T20:35:06.743Z,11.45
2022-12-27T20:37:34.373Z,11.24
2022-12-27T20:40:02.092Z,11.54
2022-12-27T20:42:29.892Z,11.41
2022-12-27T20:44:57.626Z,11.20
2022-12-27T20:47:25.295Z,11.38
2022-12-27T20:49:53.325Z,11.27
2022-12-27T20:52:24.361Z,10.89
2022-12-27T20:54:56.884Z,11.25
2022-12-27T20:57:24.563Z,10.90
2022-12-27T20:59:52.256Z,11.05
2022-12-27T21:02:20.533Z,11.10
2022-12-27T21:04:48.247Z,10.84
2022-12-27T21:07:15.769Z,10.82
2022-12-27T21:09:43.255Z,10.90
2022-12-27T21:12:10.747Z,10.99
2022-12-27T21:14:38.737Z,11.22
2022-12-27T21:17:06.700Z,11.56
2022-12-27T21:19:34.308Z,11.50
2022-12-27T21:22:01.930Z,11.27
2022-12-27T21:24:29.539Z,11.31
2022-12-27T21:26:57.039Z,11.12
2022-12-27T21:29:27.721Z,11.24
2022-12-27T21:31:55.320Z,11.37
2022-12-27T21:34:22.870Z,11.36
2022-12-27T21:36:53.528Z,11.41
2022-12-27T21:39:21.435Z,11.31
2022-12-27T21:41:49.058Z,11.45
2022-12-27T21:44:16.660Z,11.55
2022-12-27T21:46:44.967Z,11.14
2022-12-27T21:49:16.073Z,10.91
2022-12-27T21:51:44.784Z,10.93
2022-12-27T21:54:13.944Z,11.39
2022-12-27T21:56:41.773Z,11.37
2022-12-27T21:59:12.531Z,11.17
2022-12-27T22:01:50.625Z,10.95
2022-12-27T22:04:22.871Z,10.71
2022-12-27T22:06:50.915Z,10.71
2022-12-27T22:09:19.570Z,10.73
2022-12-27T22:11:47.950Z,10.48
2022-12-27T22:14:15.522Z,10.57
2022-12-27T22:16:43.365Z,10.39
2022-12-27T22:19:12.775Z,10.26
2022-12-27T22:21:41.715Z,10.25
2022-12-27T22:24:19.461Z,10.37
2022-12-27T22:26:48.799Z,10.24
2022-12-27T22:29:16.516Z,10.52
2022-12-27T22:31:44.031Z,10.30
2022-12-27T22:34:11.538Z,10.19
2022-12-27T22:36:39.045Z,10.25
2022-12-27T22:39:06.659Z,10.49
2022-12-27T22:41:36.770Z,10.66
2022-12-27T22:44:08.201Z,10.32
2022-12-27T22:47:06.812Z,10.22
2022-12-27T22:49:24.240Z,10.14
2022-12-27T22:51:51.731Z,10.25
2022-12-27T22:54:19.371Z,10.50
2022-12-27T22:56:47.492Z,10.86
2022-12-27T22:59:17.094Z,10.76
2022-12-27T23:01:46.158Z,10.81
2022-12-27T23:04:15.158Z,10.56
2022-12-27T23:06:43.203Z,10.63
2022-12-27T23:09:13.842Z,10.46
2022-12-27T23:11:42.239Z,10.04
2022-12-27T23:14:16.096Z,9.89
2022-12-27T23:16:47.903Z,9.92
2022-12-27T23:19:19.522Z,10.46
2022-12-27T23:21:47.681Z,10.68
2022-12-27T23:24:15.603Z,10.69
2022-12-27T23:26:43.467Z,10.51
2022-12-27T23:29:14.995Z,10.01
2022-12-27T23:31:54.806Z,10.00
2022-12-27T23:34:29.322Z,10.09
2022-12-27T23:37:01.279Z,10.21
2022-12-27T23:39:29.145Z,10.16
2022-12-27T23:41:56.783Z,9.99
2022-12-27T23:44:33.837Z,9.96
2022-12-27T23:47:06.240Z,10.14
2022-12-27T23:49:34.738Z,10.28
2022-12-27T23:52:03.526Z,10.24
2022-12-27T23:54:31.469Z,10.19
2022-12-27T23:57:20.644Z,10.48
2022-12-27T23:59:46.630Z,10.52
